sensor_id;sensor_type;location;lat;lon;timestamp;P1;durP1;ratioP1;P2;durP2;ratioP2
10244;SDS011;5167;52.164;10.530;2022-09-17T00:01:06;3.40;;;1.70;;
10244;SDS011;5167;52.164;10.530;2022-09-17T00:03:32;3.42;;;1.42;;
10244;SDS011;5167;52.164;10.530;2022-09-17T00:06:06;2.83;;;2.05;;
10244;SDS011;5167;52.164;10.530;2022-09-17T00:08:34;3.00;;;1.30;;
10244;SDS011;5167;52.164;10.530;2022-09-17T00:13:40;6.32;;;1.38;;
10244;SDS011;5167;52.164;10.530;2022-09-17T00:16:06;1.85;;;1.40;;
10244;SDS011;5167;52.164;10.530;2022-09-17T00:18:32;2.78;;;1.17;;
10244;SDS011;5167;52.164;10.530;2022-09-17T00:21:00;4.25;;;1.42;;
10244;SDS011;5167;52.164;10.530;2022-09-17T00:23:27;2.28;;;1.40;;
10244;SDS011;5167;52.164;10.530;2022-09-17T00:25:53;1.70;;;1.40;;
10244;SDS011;5167;52.164;10.530;2022-09-17T00:28:18;2.42;;;1.10;;
10244;SDS011;5167;52.164;10.530;2022-09-17T00:30:44;1.48;;;1.13;;
10244;SDS011;5167;52.164;10.530;2022-09-17T00:33:11;1.25;;;1.15;;
10244;SDS011;5167;52.164;10.530;2022-09-17T00:35:38;1.55;;;1.23;;
10244;SDS011;5167;52.164;10.530;2022-09-17T00:38:04;4.88;;;1.60;;
10244;SDS011;5167;52.164;10.530;2022-09-17T00:40:30;3.03;;;1.23;;
10244;SDS011;5167;52.164;10.530;2022-09-17T00:42:55;3.95;;;1.45;;
10244;SDS011;5167;52.164;10.530;2022-09-17T00:45:21;3.70;;;1.27;;
10244;SDS011;5167;52.164;10.530;2022-09-17T00:47:53;1.75;;;1.00;;
10244;SDS011;5167;52.164;10.530;2022-09-17T00:53:00;1.52;;;1.02;;
10244;SDS011;5167;52.164;10.530;2022-09-17T00:55:34;3.40;;;1.98;;
10244;SDS011;5167;52.164;10.530;2022-09-17T00:58:04;3.75;;;1.40;;
10244;SDS011;5167;52.164;10.530;2022-09-17T01:00:31;3.00;;;1.15;;
10244;SDS011;5167;52.164;10.530;2022-09-17T01:02:57;2.42;;;1.58;;
10244;SDS011;5167;52.164;10.530;2022-09-17T01:18:47;6.75;;;1.30;;
10244;SDS011;5167;52.164;10.530;2022-09-17T01:21:36;4.32;;;1.30;;
10244;SDS011;5167;52.164;10.530;2022-09-17T01:40:00;6.82;;;2.25;;
10244;SDS011;5167;52.164;10.530;2022-09-17T01:45:34;6.88;;;2.50;;
10244;SDS011;5167;52.164;10.530;2022-09-17T01:50:52;6.28;;;2.28;;
10244;SDS011;5167;52.164;10.530;2022-09-17T01:53:30;13.23;;;3.33;;
10244;SDS011;5167;52.164;10.530;2022-09-17T01:56:02;7.25;;;2.72;;
10244;SDS011;5167;52.164;10.530;2022-09-17T01:58:35;5.93;;;2.70;;
10244;SDS011;5167;52.164;10.530;2022-09-17T02:01:06;6.35;;;2.67;;
10244;SDS011;5167;52.164;10.530;2022-09-17T02:03:53;6.00;;;2.72;;
10244;SDS011;5167;52.164;10.530;2022-09-17T02:06:25;9.32;;;3.55;;
10244;SDS011;5167;52.164;10.530;2022-09-17T02:09:03;9.73;;;3.08;;
10244;SDS011;5167;52.164;10.530;2022-09-17T02:11:34;7.25;;;2.80;;
10244;SDS011;5167;52.164;10.530;2022-09-17T02:14:03;11.40;;;2.85;;
10244;SDS011;5167;52.164;10.530;2022-09-17T02:16:38;12.55;;;3.25;;
10244;SDS011;5167;52.164;10.530;2022-09-17T02:22:06;7.80;;;2.83;;
10244;SDS011;5167;52.164;10.530;2022-09-17T02:29:44;11.60;;;2.92;;
10244;SDS011;5167;52.164;10.530;2022-09-17T02:32:10;10.10;;;2.72;;
10244;SDS011;5167;52.164;10.530;2022-09-17T02:34:37;10.07;;;2.63;;
10244;SDS011;5167;52.164;10.530;2022-09-17T02:37:03;11.88;;;3.25;;
10244;SDS011;5167;52.164;10.530;2022-09-17T02:39:30;8.02;;;2.60;;
10244;SDS011;5167;52.164;10.530;2022-09-17T02:42:19;13.18;;;2.80;;
10244;SDS011;5167;52.164;10.530;2022-09-17T02:47:33;12.45;;;2.70;;
10244;SDS011;5167;52.164;10.530;2022-09-17T02:58:37;8.13;;;2.63;;
10244;SDS011;5167;52.164;10.530;2022-09-17T03:01:24;7.47;;;2.35;;
10244;SDS011;5167;52.164;10.530;2022-09-17T03:03:55;11.07;;;2.55;;
10244;SDS011;5167;52.164;10.530;2022-09-17T03:06:24;14.40;;;2.80;;
10244;SDS011;5167;52.164;10.530;2022-09-17T03:08:50;19.23;;;3.30;;
10244;SDS011;5167;52.164;10.530;2022-09-17T03:11:16;10.68;;;2.85;;
10244;SDS011;5167;52.164;10.530;2022-09-17T03:13:41;10.40;;;2.25;;
10244;SDS011;5167;52.164;10.530;2022-09-17T03:16:07;21.92;;;3.75;;
10244;SDS011;5167;52.164;10.530;2022-09-17T03:18:33;10.27;;;2.42;;
10244;SDS011;5167;52.164;10.530;2022-09-17T03:20:59;6.43;;;2.90;;
10244;SDS011;5167;52.164;10.530;2022-09-17T03:23:24;9.90;;;2.78;;
10244;SDS011;5167;52.164;10.530;2022-09-17T03:25:51;13.27;;;2.70;;
10244;SDS011;5167;52.164;10.530;2022-09-17T03:28:17;11.82;;;2.60;;
10244;SDS011;5167;52.164;10.530;2022-09-17T03:30:43;11.30;;;3.38;;
10244;SDS011;5167;52.164;10.530;2022-09-17T03:33:10;12.82;;;2.78;;
10244;SDS011;5167;52.164;10.530;2022-09-17T03:35:35;10.32;;;2.42;;
10244;SDS011;5167;52.164;10.530;2022-09-17T03:38:01;17.90;;;2.42;;
10244;SDS011;5167;52.164;10.530;2022-09-17T03:40:27;10.88;;;2.35;;
10244;SDS011;5167;52.164;10.530;2022-09-17T03:42:53;17.02;;;1.95;;
10244;SDS011;5167;52.164;10.530;2022-09-17T03:45:19;13.23;;;2.65;;
10244;SDS011;5167;52.164;10.530;2022-09-17T03:47:44;12.55;;;2.63;;
10244;SDS011;5167;52.164;10.530;2022-09-17T03:50:10;9.73;;;2.28;;
10244;SDS011;5167;52.164;10.530;2022-09-17T03:52:35;7.30;;;2.38;;
10244;SDS011;5167;52.164;10.530;2022-09-17T03:55:01;6.28;;;2.38;;
10244;SDS011;5167;52.164;10.530;2022-09-17T03:57:28;9.23;;;2.20;;
10244;SDS011;5167;52.164;10.530;2022-09-17T03:59:53;8.13;;;1.98;;
10244;SDS011;5167;52.164;10.530;2022-09-17T04:02:19;5.70;;;2.00;;
10244;SDS011;5167;52.164;10.530;2022-09-17T04:04:44;15.57;;;3.38;;
10244;SDS011;5167;52.164;10.530;2022-09-17T04:07:10;10.10;;;2.40;;
10244;SDS011;5167;52.164;10.530;2022-09-17T04:09:35;11.57;;;2.17;;
10244;SDS011;5167;52.164;10.530;2022-09-17T04:12:01;14.82;;;2.65;;
10244;SDS011;5167;52.164;10.530;2022-09-17T04:14:27;17.63;;;2.30;;
10244;SDS011;5167;52.164;10.530;2022-09-17T04:16:53;8.82;;;1.85;;
10244;SDS011;5167;52.164;10.530;2022-09-17T04:19:18;6.38;;;2.22;;
10244;SDS011;5167;52.164;10.530;2022-09-17T04:21:44;9.00;;;2.40;;
10244;SDS011;5167;52.164;10.530;2022-09-17T04:24:09;8.15;;;2.17;;
10244;SDS011;5167;52.164;10.530;2022-09-17T04:26:35;7.85;;;2.00;;
10244;SDS011;5167;52.164;10.530;2022-09-17T04:29:00;11.00;;;1.80;;
10244;SDS011;5167;52.164;10.530;2022-09-17T04:31:26;12.25;;;3.65;;
10244;SDS011;5167;52.164;10.530;2022-09-17T04:33:52;8.70;;;1.58;;
10244;SDS011;5167;52.164;10.530;2022-09-17T04:36:17;12.77;;;2.63;;
10244;SDS011;5167;52.164;10.530;2022-09-17T04:38:43;15.60;;;2.83;;
10244;SDS011;5167;52.164;10.530;2022-09-17T04:41:12;8.05;;;1.90;;
10244;SDS011;5167;52.164;10.530;2022-09-17T04:43:38;5.28;;;1.83;;
10244;SDS011;5167;52.164;10.530;2022-09-17T04:46:03;12.00;;;2.28;;
10244;SDS011;5167;52.164;10.530;2022-09-17T04:48:29;10.70;;;2.05;;
10244;SDS011;5167;52.164;10.530;2022-09-17T04:50:54;8.63;;;2.63;;
10244;SDS011;5167;52.164;10.530;2022-09-17T04:53:20;6.85;;;2.20;;
10244;SDS011;5167;52.164;10.530;2022-09-17T04:55:46;12.80;;;2.45;;
10244;SDS011;5167;52.164;10.530;2022-09-17T04:58:11;13.52;;;2.22;;
10244;SDS011;5167;52.164;10.530;2022-09-17T05:00:37;12.73;;;2.40;;
10244;SDS011;5167;52.164;10.530;2022-09-17T05:03:03;5.63;;;1.80;;
10244;SDS011;5167;52.164;10.530;2022-09-17T05:05:28;15.85;;;3.45;;
10244;SDS011;5167;52.164;10.530;2022-09-17T05:07:54;6.65;;;2.13;;
10244;SDS011;5167;52.164;10.530;2022-09-17T05:10:20;7.28;;;2.15;;
10244;SDS011;5167;52.164;10.530;2022-09-17T05:12:47;12.43;;;2.80;;
10244;SDS011;5167;52.164;10.530;2022-09-17T05:15:14;13.13;;;2.00;;
10244;SDS011;5167;52.164;10.530;2022-09-17T05:17:40;6.15;;;2.03;;
10244;SDS011;5167;52.164;10.530;2022-09-17T05:20:06;14.35;;;2.38;;
10244;SDS011;5167;52.164;10.530;2022-09-17T05:22:32;12.85;;;2.70;;
10244;SDS011;5167;52.164;10.530;2022-09-17T05:24:57;11.90;;;2.25;;
10244;SDS011;5167;52.164;10.530;2022-09-17T05:27:23;12.38;;;2.25;;
10244;SDS011;5167;52.164;10.530;2022-09-17T05:29:48;10.35;;;1.98;;
10244;SDS011;5167;52.164;10.530;2022-09-17T05:32:14;10.93;;;2.45;;
10244;SDS011;5167;52.164;10.530;2022-09-17T05:34:39;9.00;;;2.28;;
10244;SDS011;5167;52.164;10.530;2022-09-17T05:37:05;8.40;;;1.65;;
10244;SDS011;5167;52.164;10.530;2022-09-17T05:39:33;12.40;;;2.42;;
10244;SDS011;5167;52.164;10.530;2022-09-17T05:41:59;10.85;;;2.33;;
10244;SDS011;5167;52.164;10.530;2022-09-17T05:44:24;6.07;;;2.08;;
10244;SDS011;5167;52.164;10.530;2022-09-17T05:46:51;10.68;;;2.28;;
10244;SDS011;5167;52.164;10.530;2022-09-17T05:49:17;15.68;;;2.75;;
10244;SDS011;5167;52.164;10.530;2022-09-17T05:51:43;13.85;;;2.35;;
10244;SDS011;5167;52.164;10.530;2022-09-17T05:54:08;14.52;;;2.22;;
10244;SDS011;5167;52.164;10.530;2022-09-17T05:56:34;18.00;;;3.63;;
10244;SDS011;5167;52.164;10.530;2022-09-17T05:58:59;9.45;;;3.60;;
10244;SDS011;5167;52.164;10.530;2022-09-17T06:01:25;23.20;;;3.55;;
10244;SDS011;5167;52.164;10.530;2022-09-17T06:03:51;10.35;;;1.90;;
10244;SDS011;5167;52.164;10.530;2022-09-17T06:06:17;13.30;;;2.33;;
10244;SDS011;5167;52.164;10.530;2022-09-17T06:08:43;13.68;;;2.45;;
10244;SDS011;5167;52.164;10.530;2022-09-17T06:11:09;7.85;;;2.00;;
10244;SDS011;5167;52.164;10.530;2022-09-17T06:13:35;7.07;;;1.60;;
10244;SDS011;5167;52.164;10.530;2022-09-17T06:16:00;8.00;;;2.47;;
10244;SDS011;5167;52.164;10.530;2022-09-17T06:18:27;10.65;;;2.53;;
10244;SDS011;5167;52.164;10.530;2022-09-17T06:20:55;11.52;;;3.22;;
10244;SDS011;5167;52.164;10.530;2022-09-17T06:23:22;11.85;;;3.17;;
10244;SDS011;5167;52.164;10.530;2022-09-17T06:28:24;12.73;;;2.58;;
10244;SDS011;5167;52.164;10.530;2022-09-17T06:30:50;8.32;;;2.55;;
10244;SDS011;5167;52.164;10.530;2022-09-17T06:33:18;10.82;;;1.92;;
10244;SDS011;5167;52.164;10.530;2022-09-17T06:35:47;6.93;;;1.55;;
10244;SDS011;5167;52.164;10.530;2022-09-17T06:38:12;7.75;;;2.65;;
10244;SDS011;5167;52.164;10.530;2022-09-17T06:40:38;14.07;;;2.15;;
10244;SDS011;5167;52.164;10.530;2022-09-17T06:43:04;14.90;;;3.58;;
10244;SDS011;5167;52.164;10.530;2022-09-17T06:45:30;8.63;;;2.58;;
10244;SDS011;5167;52.164;10.530;2022-09-17T06:47:56;10.18;;;2.88;;
10244;SDS011;5167;52.164;10.530;2022-09-17T06:50:21;18.40;;;2.90;;
10244;SDS011;5167;52.164;10.530;2022-09-17T06:52:51;10.73;;;2.30;;
10244;SDS011;5167;52.164;10.530;2022-09-17T06:55:17;16.75;;;3.95;;
10244;SDS011;5167;52.164;10.530;2022-09-17T06:57:43;5.85;;;1.83;;
10244;SDS011;5167;52.164;10.530;2022-09-17T07:00:09;11.93;;;3.00;;
10244;SDS011;5167;52.164;10.530;2022-09-17T07:02:36;8.27;;;2.35;;
10244;SDS011;5167;52.164;10.530;2022-09-17T07:05:02;10.05;;;2.17;;
10244;SDS011;5167;52.164;10.530;2022-09-17T07:07:28;6.82;;;1.52;;
10244;SDS011;5167;52.164;10.530;2022-09-17T07:09:53;9.02;;;2.35;;
10244;SDS011;5167;52.164;10.530;2022-09-17T07:12:19;10.77;;;2.28;;
10244;SDS011;5167;52.164;10.530;2022-09-17T07:14:45;13.27;;;3.17;;
10244;SDS011;5167;52.164;10.530;2022-09-17T07:17:14;9.82;;;1.88;;
10244;SDS011;5167;52.164;10.530;2022-09-17T07:19:40;10.45;;;2.90;;
10244;SDS011;5167;52.164;10.530;2022-09-17T07:22:06;11.30;;;2.63;;
10244;SDS011;5167;52.164;10.530;2022-09-17T07:24:32;8.65;;;2.00;;
10244;SDS011;5167;52.164;10.530;2022-09-17T07:26:58;8.07;;;2.33;;
10244;SDS011;5167;52.164;10.530;2022-09-17T07:29:24;11.65;;;3.15;;
10244;SDS011;5167;52.164;10.530;2022-09-17T07:31:51;6.38;;;2.35;;
10244;SDS011;5167;52.164;10.530;2022-09-17T07:34:17;10.38;;;2.28;;
10244;SDS011;5167;52.164;10.530;2022-09-17T07:36:43;10.00;;;2.03;;
10244;SDS011;5167;52.164;10.530;2022-09-17T07:39:08;6.65;;;2.40;;
10244;SDS011;5167;52.164;10.530;2022-09-17T07:41:35;5.78;;;2.10;;
10244;SDS011;5167;52.164;10.530;2022-09-17T07:44:01;8.23;;;1.83;;
10244;SDS011;5167;52.164;10.530;2022-09-17T07:46:27;8.85;;;1.90;;
10244;SDS011;5167;52.164;10.530;2022-09-17T07:48:54;14.45;;;2.70;;
10244;SDS011;5167;52.164;10.530;2022-09-17T07:51:20;7.63;;;1.58;;
10244;SDS011;5167;52.164;10.530;2022-09-17T07:53:54;5.65;;;1.48;;
10244;SDS011;5167;52.164;10.530;2022-09-17T07:56:22;9.05;;;2.00;;
10244;SDS011;5167;52.164;10.530;2022-09-17T07:58:48;12.25;;;2.13;;
10244;SDS011;5167;52.164;10.530;2022-09-17T08:01:14;11.07;;;2.17;;
10244;SDS011;5167;52.164;10.530;2022-09-17T08:03:41;15.43;;;2.00;;
10244;SDS011;5167;52.164;10.530;2022-09-17T08:08:37;9.73;;;1.77;;
10244;SDS011;5167;52.164;10.530;2022-09-17T08:11:05;20.48;;;1.90;;
10244;SDS011;5167;52.164;10.530;2022-09-17T08:13:33;11.38;;;2.05;;
10244;SDS011;5167;52.164;10.530;2022-09-17T08:16:03;15.23;;;2.83;;
10244;SDS011;5167;52.164;10.530;2022-09-17T08:18:31;7.55;;;2.42;;
10244;SDS011;5167;52.164;10.530;2022-09-17T08:20:57;7.85;;;2.03;;
10244;SDS011;5167;52.164;10.530;2022-09-17T08:23:24;5.45;;;1.75;;
10244;SDS011;5167;52.164;10.530;2022-09-17T08:25:50;6.82;;;1.70;;
10244;SDS011;5167;52.164;10.530;2022-09-17T08:28:20;12.57;;;2.63;;
10244;SDS011;5167;52.164;10.530;2022-09-17T08:30:46;12.85;;;2.88;;
10244;SDS011;5167;52.164;10.530;2022-09-17T08:33:13;8.30;;;2.30;;
10244;SDS011;5167;52.164;10.530;2022-09-17T08:35:39;12.20;;;1.70;;
10244;SDS011;5167;52.164;10.530;2022-09-17T08:38:05;14.25;;;2.10;;
10244;SDS011;5167;52.164;10.530;2022-09-17T08:40:31;10.07;;;2.00;;
10244;SDS011;5167;52.164;10.530;2022-09-17T08:43:10;4.50;;;1.60;;
10244;SDS011;5167;52.164;10.530;2022-09-17T08:45:41;9.00;;;2.35;;
10244;SDS011;5167;52.164;10.530;2022-09-17T08:48:07;10.25;;;2.20;;
10244;SDS011;5167;52.164;10.530;2022-09-17T08:50:37;4.97;;;1.60;;
10244;SDS011;5167;52.164;10.530;2022-09-17T08:53:22;7.90;;;1.90;;
10244;SDS011;5167;52.164;10.530;2022-09-17T08:56:00;12.02;;;2.00;;
10244;SDS011;5167;52.164;10.530;2022-09-17T09:01:14;12.60;;;1.88;;
10244;SDS011;5167;52.164;10.530;2022-09-17T09:04:18;7.50;;;1.38;;
10244;SDS011;5167;52.164;10.530;2022-09-17T09:06:54;11.32;;;1.90;;
10244;SDS011;5167;52.164;10.530;2022-09-17T09:09:27;6.43;;;1.45;;
10244;SDS011;5167;52.164;10.530;2022-09-17T09:12:03;9.15;;;1.45;;
10244;SDS011;5167;52.164;10.530;2022-09-17T09:14:54;13.55;;;2.13;;
10244;SDS011;5167;52.164;10.530;2022-09-17T09:17:46;3.95;;;1.45;;
10244;SDS011;5167;52.164;10.530;2022-09-17T09:20:15;13.52;;;2.67;;
10244;SDS011;5167;52.164;10.530;2022-09-17T09:23:04;10.88;;;1.98;;
10244;SDS011;5167;52.164;10.530;2022-09-17T09:25:42;9.07;;;2.20;;
10244;SDS011;5167;52.164;10.530;2022-09-17T09:28:52;4.78;;;1.50;;
10244;SDS011;5167;52.164;10.530;2022-09-17T09:33:50;8.20;;;2.05;;
10244;SDS011;5167;52.164;10.530;2022-09-17T09:36:16;9.85;;;2.10;;
10244;SDS011;5167;52.164;10.530;2022-09-17T09:38:49;6.20;;;1.92;;
10244;SDS011;5167;52.164;10.530;2022-09-17T09:41:30;6.47;;;1.90;;
10244;SDS011;5167;52.164;10.530;2022-09-17T09:44:02;6.97;;;1.73;;
10244;SDS011;5167;52.164;10.530;2022-09-17T09:46:31;8.40;;;1.90;;
10244;SDS011;5167;52.164;10.530;2022-09-17T09:54:54;8.75;;;2.13;;
10244;SDS011;5167;52.164;10.530;2022-09-17T09:57:31;12.70;;;1.65;;
10244;SDS011;5167;52.164;10.530;2022-09-17T10:02:55;9.85;;;1.65;;
10244;SDS011;5167;52.164;10.530;2022-09-17T10:05:52;8.90;;;1.75;;
10244;SDS011;5167;52.164;10.530;2022-09-17T10:08:19;4.93;;;1.30;;
10244;SDS011;5167;52.164;10.530;2022-09-17T10:10:54;8.15;;;1.63;;
10244;SDS011;5167;52.164;10.530;2022-09-17T10:13:22;9.73;;;1.95;;
10244;SDS011;5167;52.164;10.530;2022-09-17T10:15:48;11.40;;;2.47;;
10244;SDS011;5167;52.164;10.530;2022-09-17T10:20:50;5.70;;;1.75;;
10244;SDS011;5167;52.164;10.530;2022-09-17T10:23:24;8.20;;;1.60;;
10244;SDS011;5167;52.164;10.530;2022-09-17T10:25:51;8.48;;;1.40;;
10244;SDS011;5167;52.164;10.530;2022-09-17T10:31:08;7.30;;;1.58;;
10244;SDS011;5167;52.164;10.530;2022-09-17T10:33:37;7.40;;;1.92;;
10244;SDS011;5167;52.164;10.530;2022-09-17T10:36:14;8.55;;;1.58;;
10244;SDS011;5167;52.164;10.530;2022-09-17T10:38:41;5.10;;;1.15;;
10244;SDS011;5167;52.164;10.530;2022-09-17T10:41:18;4.85;;;1.17;;
10244;SDS011;5167;52.164;10.530;2022-09-17T10:43:52;5.47;;;1.30;;
10244;SDS011;5167;52.164;10.530;2022-09-17T10:46:28;7.05;;;1.73;;
10244;SDS011;5167;52.164;10.530;2022-09-17T10:49:06;5.32;;;1.40;;
10244;SDS011;5167;52.164;10.530;2022-09-17T10:51:32;7.22;;;1.67;;
10244;SDS011;5167;52.164;10.530;2022-09-17T10:56:36;5.50;;;1.77;;
10244;SDS011;5167;52.164;10.530;2022-09-17T10:59:32;7.00;;;1.30;;
10244;SDS011;5167;52.164;10.530;2022-09-17T11:04:29;5.22;;;1.30;;
10244;SDS011;5167;52.164;10.530;2022-09-17T11:07:09;8.32;;;1.48;;
10244;SDS011;5167;52.164;10.530;2022-09-17T11:10:15;5.55;;;1.20;;
10244;SDS011;5167;52.164;10.530;2022-09-17T11:13:01;7.68;;;1.45;;
10244;SDS011;5167;52.164;10.530;2022-09-17T11:23:26;4.90;;;1.38;;
10244;SDS011;5167;52.164;10.530;2022-09-17T11:37:34;4.88;;;1.80;;
10244;SDS011;5167;52.164;10.530;2022-09-17T11:40:02;5.55;;;1.35;;
10244;SDS011;5167;52.164;10.530;2022-09-17T11:42:32;5.72;;;1.58;;
10244;SDS011;5167;52.164;10.530;2022-09-17T11:45:05;5.05;;;1.38;;
10244;SDS011;5167;52.164;10.530;2022-09-17T11:47:46;4.47;;;1.27;;
10244;SDS011;5167;52.164;10.530;2022-09-17T11:50:22;5.43;;;1.02;;
10244;SDS011;5167;52.164;10.530;2022-09-17T11:58:13;9.27;;;1.73;;
10244;SDS011;5167;52.164;10.530;2022-09-17T12:00:53;5.18;;;1.45;;
10244;SDS011;5167;52.164;10.530;2022-09-17T12:03:33;4.20;;;1.83;;
10244;SDS011;5167;52.164;10.530;2022-09-17T12:06:12;5.72;;;1.30;;
10244;SDS011;5167;52.164;10.530;2022-09-17T12:09:02;5.55;;;1.25;;
10244;SDS011;5167;52.164;10.530;2022-09-17T12:11:44;7.03;;;1.42;;
10244;SDS011;5167;52.164;10.530;2022-09-17T12:14:23;4.70;;;1.70;;
10244;SDS011;5167;52.164;10.530;2022-09-17T12:16:58;6.78;;;1.05;;
10244;SDS011;5167;52.164;10.530;2022-09-17T12:19:30;6.30;;;1.30;;
10244;SDS011;5167;52.164;10.530;2022-09-17T12:22:03;4.32;;;1.52;;
10244;SDS011;5167;52.164;10.530;2022-09-17T12:24:35;9.70;;;1.38;;
10244;SDS011;5167;52.164;10.530;2022-09-17T12:27:11;4.60;;;1.33;;
10244;SDS011;5167;52.164;10.530;2022-09-17T12:51:45;2.67;;;1.23;;
10244;SDS011;5167;52.164;10.530;2022-09-17T12:54:24;5.13;;;1.02;;
10244;SDS011;5167;52.164;10.530;2022-09-17T12:59:56;7.47;;;1.15;;
10244;SDS011;5167;52.164;10.530;2022-09-17T13:14:20;4.90;;;1.10;;
10244;SDS011;5167;52.164;10.530;2022-09-17T13:16:53;4.60;;;1.40;;
10244;SDS011;5167;52.164;10.530;2022-09-17T13:19:37;7.05;;;1.33;;
10244;SDS011;5167;52.164;10.530;2022-09-17T13:22:45;3.85;;;1.58;;
10244;SDS011;5167;52.164;10.530;2022-09-17T13:25:13;3.83;;;1.20;;
10244;SDS011;5167;52.164;10.530;2022-09-17T13:27:41;4.00;;;1.20;;
10244;SDS011;5167;52.164;10.530;2022-09-17T13:30:09;9.63;;;1.83;;
10244;SDS011;5167;52.164;10.530;2022-09-17T13:37:36;8.65;;;3.10;;
10244;SDS011;5167;52.164;10.530;2022-09-17T13:40:03;6.00;;;1.35;;
10244;SDS011;5167;52.164;10.530;2022-09-17T13:42:43;4.88;;;1.08;;
10244;SDS011;5167;52.164;10.530;2022-09-17T13:45:15;4.65;;;1.27;;
10244;SDS011;5167;52.164;10.530;2022-09-17T13:47:55;9.27;;;1.27;;
10244;SDS011;5167;52.164;10.530;2022-09-17T13:50:32;8.48;;;1.92;;
10244;SDS011;5167;52.164;10.530;2022-09-17T14:24:24;5.65;;;1.27;;
10244;SDS011;5167;52.164;10.530;2022-09-17T14:32:25;6.53;;;1.83;;
10244;SDS011;5167;52.164;10.530;2022-09-17T14:34:59;8.85;;;2.45;;
10244;SDS011;5167;52.164;10.530;2022-09-17T14:37:28;9.32;;;3.92;;
10244;SDS011;5167;52.164;10.530;2022-09-17T14:39:53;8.43;;;4.70;;
10244;SDS011;5167;52.164;10.530;2022-09-17T14:42:21;7.88;;;3.55;;
10244;SDS011;5167;52.164;10.530;2022-09-17T14:44:53;7.43;;;3.72;;
10244;SDS011;5167;52.164;10.530;2022-09-17T14:47:25;8.10;;;3.35;;
10244;SDS011;5167;52.164;10.530;2022-09-17T14:49:51;6.28;;;3.13;;
10244;SDS011;5167;52.164;10.530;2022-09-17T14:52:27;5.75;;;2.58;;
10244;SDS011;5167;52.164;10.530;2022-09-17T14:55:07;27.90;;;12.52;;
10244;SDS011;5167;52.164;10.530;2022-09-17T14:57:43;28.55;;;15.20;;
10244;SDS011;5167;52.164;10.530;2022-09-17T15:00:20;22.45;;;12.15;;
10244;SDS011;5167;52.164;10.530;2022-09-17T15:02:55;7.32;;;3.67;;
10244;SDS011;5167;52.164;10.530;2022-09-17T15:05:25;4.65;;;1.90;;
10244;SDS011;5167;52.164;10.530;2022-09-17T15:10:54;3.78;;;2.05;;
10244;SDS011;5167;52.164;10.530;2022-09-17T15:13:30;2.83;;;1.55;;
10244;SDS011;5167;52.164;10.530;2022-09-17T15:16:21;6.43;;;1.90;;
10244;SDS011;5167;52.164;10.530;2022-09-17T15:18:51;4.93;;;2.00;;
10244;SDS011;5167;52.164;10.530;2022-09-17T15:26:42;6.93;;;1.58;;
10244;SDS011;5167;52.164;10.530;2022-09-17T15:29:13;4.40;;;1.45;;
10244;SDS011;5167;52.164;10.530;2022-09-17T15:31:39;5.78;;;1.48;;
10244;SDS011;5167;52.164;10.530;2022-09-17T15:34:05;6.47;;;1.85;;
10244;SDS011;5167;52.164;10.530;2022-09-17T15:36:34;5.70;;;1.75;;
10244;SDS011;5167;52.164;10.530;2022-09-17T15:38:59;7.68;;;1.48;;
10244;SDS011;5167;52.164;10.530;2022-09-17T15:41:44;3.75;;;1.70;;
10244;SDS011;5167;52.164;10.530;2022-09-17T15:44:20;5.50;;;1.80;;
10244;SDS011;5167;52.164;10.530;2022-09-17T15:46:51;7.15;;;1.45;;
10244;SDS011;5167;52.164;10.530;2022-09-17T15:49:30;7.15;;;1.88;;
10244;SDS011;5167;52.164;10.530;2022-09-17T15:54:55;2.13;;;1.27;;
10244;SDS011;5167;52.164;10.530;2022-09-17T15:57:21;6.90;;;1.45;;
10244;SDS011;5167;52.164;10.530;2022-09-17T15:59:49;5.18;;;1.50;;
10244;SDS011;5167;52.164;10.530;2022-09-17T16:02:28;12.63;;;1.85;;
10244;SDS011;5167;52.164;10.530;2022-09-17T16:07:43;6.15;;;1.35;;
10244;SDS011;5167;52.164;10.530;2022-09-17T16:10:10;8.10;;;2.08;;
10244;SDS011;5167;52.164;10.530;2022-09-17T16:12:36;4.63;;;1.67;;
10244;SDS011;5167;52.164;10.530;2022-09-17T16:15:02;6.25;;;2.50;;
10244;SDS011;5167;52.164;10.530;2022-09-17T16:17:30;8.82;;;1.95;;
10244;SDS011;5167;52.164;10.530;2022-09-17T16:22:49;4.78;;;2.15;;
10244;SDS011;5167;52.164;10.530;2022-09-17T16:25:16;8.63;;;2.90;;
10244;SDS011;5167;52.164;10.530;2022-09-17T16:30:22;12.75;;;4.30;;
10244;SDS011;5167;52.164;10.530;2022-09-17T16:32:49;7.15;;;2.38;;
10244;SDS011;5167;52.164;10.530;2022-09-17T16:35:16;9.55;;;3.05;;
10244;SDS011;5167;52.164;10.530;2022-09-17T16:37:48;7.97;;;2.45;;
10244;SDS011;5167;52.164;10.530;2022-09-17T16:40:14;4.85;;;1.70;;
10244;SDS011;5167;52.164;10.530;2022-09-17T16:42:40;9.40;;;3.05;;
10244;SDS011;5167;52.164;10.530;2022-09-17T16:45:06;3.40;;;2.45;;
10244;SDS011;5167;52.164;10.530;2022-09-17T16:47:36;11.73;;;2.08;;
10244;SDS011;5167;52.164;10.530;2022-09-17T16:50:05;6.93;;;1.80;;
10244;SDS011;5167;52.164;10.530;2022-09-17T16:52:32;8.52;;;1.92;;
10244;SDS011;5167;52.164;10.530;2022-09-17T16:54:58;3.30;;;1.35;;
10244;SDS011;5167;52.164;10.530;2022-09-17T16:57:24;8.38;;;1.65;;
10244;SDS011;5167;52.164;10.530;2022-09-17T16:59:50;3.47;;;2.20;;
10244;SDS011;5167;52.164;10.530;2022-09-17T17:02:15;11.13;;;2.08;;
10244;SDS011;5167;52.164;10.530;2022-09-17T17:04:41;6.10;;;1.38;;
10244;SDS011;5167;52.164;10.530;2022-09-17T17:07:06;7.28;;;2.05;;
10244;SDS011;5167;52.164;10.530;2022-09-17T17:09:33;8.10;;;1.90;;
10244;SDS011;5167;52.164;10.530;2022-09-17T17:11:58;10.20;;;1.92;;
10244;SDS011;5167;52.164;10.530;2022-09-17T17:14:24;7.32;;;1.85;;
10244;SDS011;5167;52.164;10.530;2022-09-17T17:16:52;15.18;;;2.30;;
10244;SDS011;5167;52.164;10.530;2022-09-17T17:19:18;6.18;;;2.13;;
10244;SDS011;5167;52.164;10.530;2022-09-17T17:21:44;4.70;;;1.65;;
10244;SDS011;5167;52.164;10.530;2022-09-17T17:24:10;6.40;;;1.50;;
10244;SDS011;5167;52.164;10.530;2022-09-17T17:26:37;7.45;;;1.50;;
10244;SDS011;5167;52.164;10.530;2022-09-17T17:29:03;4.88;;;1.40;;
10244;SDS011;5167;52.164;10.530;2022-09-17T17:31:28;4.32;;;1.50;;
10244;SDS011;5167;52.164;10.530;2022-09-17T17:33:54;10.93;;;2.15;;
10244;SDS011;5167;52.164;10.530;2022-09-17T17:36:19;4.97;;;2.05;;
10244;SDS011;5167;52.164;10.530;2022-09-17T17:38:45;13.00;;;3.90;;
10244;SDS011;5167;52.164;10.530;2022-09-17T17:41:11;9.32;;;3.55;;
10244;SDS011;5167;52.164;10.530;2022-09-17T17:43:38;8.50;;;2.13;;
10244;SDS011;5167;52.164;10.530;2022-09-17T17:46:04;4.57;;;1.60;;
10244;SDS011;5167;52.164;10.530;2022-09-17T17:48:32;7.25;;;1.98;;
10244;SDS011;5167;52.164;10.530;2022-09-17T17:51:04;8.00;;;1.38;;
10244;SDS011;5167;52.164;10.530;2022-09-17T17:53:31;6.68;;;1.58;;
10244;SDS011;5167;52.164;10.530;2022-09-17T17:55:58;4.68;;;1.85;;
10244;SDS011;5167;52.164;10.530;2022-09-17T17:58:24;8.25;;;3.75;;
10244;SDS011;5167;52.164;10.530;2022-09-17T18:00:50;5.85;;;1.75;;
10244;SDS011;5167;52.164;10.530;2022-09-17T18:03:16;12.75;;;2.20;;
10244;SDS011;5167;52.164;10.530;2022-09-17T18:05:42;4.80;;;1.92;;
10244;SDS011;5167;52.164;10.530;2022-09-17T18:08:08;6.85;;;1.85;;
10244;SDS011;5167;52.164;10.530;2022-09-17T18:10:33;10.23;;;1.92;;
10244;SDS011;5167;52.164;10.530;2022-09-17T18:12:59;3.47;;;1.58;;
10244;SDS011;5167;52.164;10.530;2022-09-17T18:15:25;4.97;;;1.58;;
10244;SDS011;5167;52.164;10.530;2022-09-17T18:17:50;13.32;;;1.88;;
10244;SDS011;5167;52.164;10.530;2022-09-17T18:20:17;10.57;;;3.25;;
10244;SDS011;5167;52.164;10.530;2022-09-17T18:22:43;7.68;;;1.45;;
10244;SDS011;5167;52.164;10.530;2022-09-17T18:25:09;9.23;;;1.90;;
10244;SDS011;5167;52.164;10.530;2022-09-17T18:27:34;3.83;;;1.30;;
10244;SDS011;5167;52.164;10.530;2022-09-17T18:30:00;6.80;;;2.80;;